Terminal Aerodrome Forecast
Issued by NWS Spokane, WA

Home | Current Version | Previous Version | Text Only | Print | Product List | Glossary On
Versions: 1 2 3 4 5 6 7 8 9 10 11 12 13 14 15 16 17 18 19 20 21 22 23 24 25 26 27 28 29 30 31 32 33
202
FTUS46 KOTX 111136
TAFEAT
TAF
KEAT 111136Z 1112/1212 00000KT P6SM BKN200
     FM111700 28003KT P6SM VCSH SCT020 OVC060
     FM112300 VRB02KT P6SM -RA SCT020 OVC040
     FM120200 VRB03KT 6SM -RA BR BKN019 OVC035=

USA.gov is the U.S. government's official web portal to all federal, state and local government web resources and services.